Time;durP1;ratioP1;P1;durP2;ratioP2;P2;SDS_P1;SDS_P2;PMS_P1;PMS_P2;Temp;Humidity;BMP_temperature;BMP_pressure;BME280_temperature;BME280_humidity;BME280_pressure;Samples;Min_cycle;Max_cycle;Signal;HPM_P1;HPM_P2
2021/06/29 00:04:56;;;;;;;10.1;6.6;;;;;;;16.85;100;98507.84;;;;
2021/06/29 00:14:56;;;;;;;9.7;7.3;;;;;;;16.6;100;98494.39;;;;
2021/06/29 00:24:55;;;;;;;10.5;8.2;;;;;;;16.49;100;98492.48;;;;
2021/06/29 00:34:55;;;;;;;11.1;8.6;;;;;;;16.17;100;98472.6;;;;
2021/06/29 00:44:54;;;;;;;13.6;9.7;;;;;;;16.17;100;98482.69;;;;
2021/06/29 00:54:53;;;;;;;10.3;8.5;;;;;;;15.99;100;98466.66;;;;
2021/06/29 01:04:53;;;;;;;11.7;8.2;;;;;;;15.92;100;98460.23;;;;
2021/06/29 01:14:52;;;;;;;8.4;7.2;;;;;;;15.81;100;98470.8;;;;
2021/06/29 01:24:53;;;;;;;11.6;8.9;;;;;;;15.67;100;98458.72;;;;
2021/06/29 01:34:51;;;;;;;10.7;8.7;;;;;;;15.52;100;98452.06;;;;
2021/06/29 01:44:50;;;;;;;10.3;8.2;;;;;;;15.4;100;98444.72;;;;
2021/06/29 01:54:50;;;;;;;13.7;9.2;;;;;;;15.31;100;98445.95;;;;
2021/06/29 02:04:48;;;;;;;10.7;9.1;;;;;;;15.19;100;98441.34;;;;
2021/06/29 02:14:48;;;;;;;13.8;11.4;;;;;;;15;100;98438.41;;;;
2021/06/29 02:24:47;;;;;;;14.2;11.3;;;;;;;15;100;98433.77;;;;
2021/06/29 02:34:46;;;;;;;12;9.3;;;;;;;14.91;100;98427.67;;;;
2021/06/29 02:44:45;;;;;;;12.6;9.6;;;;;;;14.9;100;98434.23;;;;
2021/06/29 02:54:45;;;;;;;15.2;9.4;;;;;;;14.99;100;98442.27;;;;
2021/06/29 03:04:44;;;;;;;13.2;9.9;;;;;;;15.01;100;98445.42;;;;
2021/06/29 03:14:43;;;;;;;12.2;10;;;;;;;15.15;100;98447.79;;;;
2021/06/29 03:24:42;;;;;;;13.5;9.1;;;;;;;15.48;100;98453.88;;;;
2021/06/29 03:34:42;;;;;;;12.3;10.7;;;;;;;15.79;100;98448.59;;;;
2021/06/29 03:44:41;;;;;;;13.2;9.5;;;;;;;16.09;100;98446.34;;;;
2021/06/29 03:54:41;;;;;;;15.3;9.7;;;;;;;16.34;100;98450.53;;;;
2021/06/29 04:04:42;;;;;;;11;9.9;;;;;;;16.75;100;98456.66;;;;
2021/06/29 04:14:39;;;;;;;12;9.1;;;;;;;17.05;100;98458.58;;;;
2021/06/29 04:24:39;;;;;;;10.8;8.9;;;;;;;17.34;100;98438.24;;;;
2021/06/29 04:34:38;;;;;;;12.5;9.5;;;;;;;17.69;100;98437.46;;;;
2021/06/29 04:44:39;;;;;;;11.3;8.3;;;;;;;18.29;100;98420.34;;;;
2021/06/29 04:54:38;;;;;;;9.1;6.9;;;;;;;18.77;100;98429.81;;;;
2021/06/29 05:04:38;;;;;;;14.8;8.2;;;;;;;19.32;100;98438.46;;;;
2021/06/29 05:14:37;;;;;;;12.4;8.7;;;;;;;20.04;100;98442.58;;;;
2021/06/29 05:24:37;;;;;;;9.7;7.8;;;;;;;20.06;100;98442.22;;;;
2021/06/29 05:34:37;;;;;;;8.7;7.1;;;;;;;20.62;100;98430.31;;;;
2021/06/29 05:44:37;;;;;;;9.9;7.2;;;;;;;21.34;100;98436.79;;;;
2021/06/29 05:54:37;;;;;;;9.3;6.8;;;;;;;21.75;100;98428.39;;;;
2021/06/29 06:04:38;;;;;;;16.1;6.4;;;;;;;21.9;100;98408.11;;;;
2021/06/29 06:14:38;;;;;;;9.7;7.5;;;;;;;22.08;100;98420.7;;;;
2021/06/29 06:24:38;;;;;;;9;6.7;;;;;;;22.5;100;98416.48;;;;
2021/06/29 06:34:38;;;;;;;7.9;5.9;;;;;;;22.85;100;98411.05;;;;
2021/06/29 06:44:39;;;;;;;7.6;5.5;;;;;;;23.33;100;98408.64;;;;
2021/06/29 06:54:39;;;;;;;9;6;;;;;;;23.87;100;98412.05;;;;
2021/06/29 07:04:40;;;;;;;10.2;5.9;;;;;;;24.43;100;98405.5;;;;
2021/06/29 07:14:42;;;;;;;12.1;8;;;;;;;24.33;100;98390.58;;;;
2021/06/29 07:24:41;;;;;;;12.8;8.6;;;;;;;23.98;100;98382.52;;;;
2021/06/29 07:34:41;;;;;;;9.3;7.8;;;;;;;24.1;100;98376.53;;;;
2021/06/29 07:44:42;;;;;;;12.6;8.1;;;;;;;24.38;100;98370.88;;;;
2021/06/29 07:54:42;;;;;;;9.8;6.6;;;;;;;25.08;100;98367.98;;;;
2021/06/29 08:04:44;;;;;;;7.4;6.2;;;;;;;25.16;100;98369.48;;;;
2021/06/29 08:14:44;;;;;;;9.1;6;;;;;;;25.23;100;98370.2;;;;
2021/06/29 08:24:45;;;;;;;10.5;5.7;;;;;;;25.82;99.29199;98384.53;;;;
2021/06/29 08:34:45;;;;;;;13.6;5.4;;;;;;;26.14;98.23438;98377.78;;;;
2021/06/29 08:44:46;;;;;;;8.4;5.2;;;;;;;25.14;94.75;98383.67;;;;
2021/06/29 08:54:47;;;;;;;8.2;5;;;;;;;24.98;97.46191;98375.16;;;;
2021/06/29 09:04:49;;;;;;;7.4;4.2;;;;;;;24.71;100;98360.41;;;;
2021/06/29 09:14:49;;;;;;;8.7;5.4;;;;;;;24.72;100;98370.23;;;;
2021/06/29 09:24:50;;;;;;;6.7;5.4;;;;;;;23.9;100;98368;;;;
2021/06/29 09:34:50;;;;;;;6.7;4.7;;;;;;;23.75;100;98354.69;;;;
2021/06/29 09:44:51;;;;;;;6.9;4.2;;;;;;;25.34;100;98356.27;;;;
2021/06/29 09:54:52;;;;;;;7.4;5.6;;;;;;;25.88;100;98346.19;;;;
2021/06/29 10:04:52;;;;;;;6.3;4.7;;;;;;;26.08;100;98341.56;;;;
2021/06/29 10:14:53;;;;;;;6.3;4.6;;;;;;;25.97;100;98341.71;;;;
2021/06/29 10:24:54;;;;;;;8;4.9;;;;;;;26.55;98.99512;98333.39;;;;
2021/06/29 10:34:55;;;;;;;7;4.3;;;;;;;26.3;99.40918;98331.8;;;;
2021/06/29 10:44:56;;;;;;;6.8;3.8;;;;;;;26.48;97.51855;98307.41;;;;
2021/06/29 10:54:57;;;;;;;7.2;4.3;;;;;;;26.7;95.82031;98315.34;;;;
2021/06/29 11:04:59;;;;;;;5.9;4.7;;;;;;;27.2;95.44727;98304.98;;;;
2021/06/29 11:14:59;;;;;;;7.3;5.6;;;;;;;27.82;93.26758;98312.44;;;;
2021/06/29 11:25:00;;;;;;;10.8;6.1;;;;;;;28.08;89.18066;98309.92;;;;
2021/06/29 11:35:02;;;;;;;7.2;3.7;;;;;;;28.41;84.77148;98311.5;;;;
2021/06/29 11:45:03;;;;;;;6.2;4.5;;;;;;;28.08;86.24414;98290.53;;;;
2021/06/29 11:55:04;;;;;;;5.4;4.6;;;;;;;28.1;87.10156;98271.47;;;;
2021/06/29 12:05:05;;;;;;;7.1;5.5;;;;;;;27.99;90.22754;98255.06;;;;
2021/06/29 12:15:06;;;;;;;7.8;4.6;;;;;;;27.62;91.54492;98241.67;;;;
2021/06/29 12:25:07;;;;;;;6.5;4.2;;;;;;;28.35;90.1123;98232.84;;;;
2021/06/29 12:35:09;;;;;;;6.7;3.7;;;;;;;28.39;88.75;98228;;;;
2021/06/29 12:45:10;;;;;;;7.4;4.5;;;;;;;28.17;87.76074;98208.34;;;;
2021/06/29 12:55:12;;;;;;;5.3;3.8;;;;;;;28.54;85.25391;98192.34;;;;
2021/06/29 13:05:14;;;;;;;5.9;3.7;;;;;;;28.62;85.70215;98175.09;;;;
2021/06/29 13:15:13;;;;;;;6.8;4.1;;;;;;;28.75;83.12207;98170.39;;;;
2021/06/29 13:25:15;;;;;;;7.1;4.6;;;;;;;28.54;80.69043;98159.06;;;;
2021/06/29 13:35:16;;;;;;;5.6;3.9;;;;;;;28.78;80.55566;98157.63;;;;
2021/06/29 13:45:17;;;;;;;6.9;5.3;;;;;;;29.17;78.93164;98123.2;;;;
2021/06/29 13:55:18;;;;;;;9.5;4.5;;;;;;;28.85;78.75977;98110.27;;;;
2021/06/29 14:05:20;;;;;;;7.5;3.5;;;;;;;28.96;83.16113;98116.29;;;;
2021/06/29 14:15:21;;;;;;;6.5;4;;;;;;;28.63;81.19922;98093.45;;;;
2021/06/29 14:25:22;;;;;;;5.6;4;;;;;;;29.02;82.81836;98077.69;;;;
2021/06/29 14:35:23;;;;;;;6.1;3.7;;;;;;;29.4;79.17383;98076.48;;;;
2021/06/29 14:45:26;;;;;;;11.2;8;;;;;;;30.21;82.39941;98084.11;;;;
2021/06/29 14:55:26;;;;;;;7.4;4.8;;;;;;;29.44;80.50781;98068.03;;;;
2021/06/29 15:05:27;;;;;;;6.9;4.3;;;;;;;30.06;77.3418;98069.15;;;;
2021/06/29 15:15:29;;;;;;;6.8;4.5;;;;;;;32.16;71.77051;98051.48;;;;
2021/06/29 15:25:31;;;;;;;5.1;3.3;;;;;;;33.53;67.22168;98043.55;;;;
2021/06/29 15:35:33;;;;;;;5.5;3;;;;;;;33.95;64.53809;98021.08;;;;
2021/06/29 15:45:35;;;;;;;5.6;3.4;;;;;;;34.42;61.80762;98011.83;;;;
2021/06/29 15:55:37;;;;;;;4.8;3.5;;;;;;;32.91;65.39355;98021.75;;;;
2021/06/29 16:05:39;;;;;;;6.3;3.9;;;;;;;32;69.51465;97993.22;;;;
2021/06/29 16:15:41;;;;;;;7;4.3;;;;;;;32.48;69.83789;97969.16;;;;
2021/06/29 16:25:43;;;;;;;7.1;5.1;;;;;;;33.43;67.11133;97950.59;;;;
2021/06/29 16:35:45;;;;;;;7;4.7;;;;;;;32.1;70.58594;97941.81;;;;
2021/06/29 16:45:47;;;;;;;8.7;6;;;;;;;31.17;73.26074;97946.98;;;;
2021/06/29 16:55:49;;;;;;;10.4;8.6;;;;;;;31.56;73.25195;97946.13;;;;
2021/06/29 17:05:50;;;;;;;7.5;5.9;;;;;;;30.02;79.04492;97932.34;;;;
2021/06/29 17:15:52;;;;;;;8.4;5.5;;;;;;;29.77;80.21387;97932.42;;;;
2021/06/29 17:25:53;;;;;;;7.7;5.7;;;;;;;28.66;84.9248;97926.17;;;;
2021/06/29 17:35:56;;;;;;;7.2;5.2;;;;;;;28.85;83.54004;97925.19;;;;
2021/06/29 17:45:56;;;;;;;12.1;7.9;;;;;;;29.51;80.48535;97930.95;;;;
2021/06/29 17:55:57;;;;;;;13.9;10.8;;;;;;;29.48;79.6582;97922.31;;;;
2021/06/29 18:05:59;;;;;;;14.5;11.1;;;;;;;28.38;83.34863;97905.64;;;;
2021/06/29 18:16:00;;;;;;;12.3;9.5;;;;;;;27.69;85.60938;97903.69;;;;
2021/06/29 18:26:01;;;;;;;9.8;7.2;;;;;;;26.91;91.00684;97900.94;;;;
2021/06/29 18:36:02;;;;;;;10.5;6.2;;;;;;;26.29;96.40723;97885.38;;;;
2021/06/29 18:46:03;;;;;;;8.6;6.9;;;;;;;25.5;100;97892.88;;;;
2021/06/29 18:56:03;;;;;;;9.9;5.4;;;;;;;24.78;100;97898.03;;;;
2021/06/29 19:06:04;;;;;;;10.2;6.8;;;;;;;24.34;100;97887.3;;;;
2021/06/29 19:16:04;;;;;;;8.1;6.2;;;;;;;24.11;100;97887.98;;;;
2021/06/29 19:26:05;;;;;;;13.3;7.8;;;;;;;23.76;100;97883.71;;;;
2021/06/29 19:36:05;;;;;;;9.1;7.2;;;;;;;23.55;100;97889.45;;;;
2021/06/29 19:46:06;;;;;;;9.6;6.6;;;;;;;23.26;100;97882.65;;;;
2021/06/29 19:56:06;;;;;;;19.8;17.7;;;;;;;23.03;100;97881.31;;;;
2021/06/29 20:06:06;;;;;;;13.2;9.2;;;;;;;22.72;100;97889.82;;;;
2021/06/29 20:16:07;;;;;;;13.1;8.5;;;;;;;22.45;100;97864.89;;;;
2021/06/29 20:26:07;;;;;;;11.8;7.5;;;;;;;22.35;100;97863;;;;
2021/06/29 20:36:07;;;;;;;10.9;7.7;;;;;;;22.18;100;97852.91;;;;
2021/06/29 20:46:07;;;;;;;9.6;7.8;;;;;;;21.94;100;97849.1;;;;
2021/06/29 20:56:07;;;;;;;12.5;7.7;;;;;;;21.82;100;97838.56;;;;
2021/06/29 21:06:07;;;;;;;14.4;9.4;;;;;;;21.6;100;97848.84;;;;
2021/06/29 21:16:08;;;;;;;13.1;9.3;;;;;;;21.36;100;97839.53;;;;
2021/06/29 21:26:08;;;;;;;10.7;9.6;;;;;;;21.11;100;97846.23;;;;
2021/06/29 21:36:08;;;;;;;8.4;6.8;;;;;;;20.97;100;97825.09;;;;
2021/06/29 21:46:08;;;;;;;13.1;9.3;;;;;;;20.81;100;97828.27;;;;
2021/06/29 21:56:08;;;;;;;11.8;9;;;;;;;20.67;100;97811.06;;;;
2021/06/29 22:06:08;;;;;;;10;9;;;;;;;20.64;100;97818.11;;;;
2021/06/29 22:16:08;;;;;;;14.8;9.7;;;;;;;20.5;100;97807.16;;;;
2021/06/29 22:26:08;;;;;;;9.6;8.4;;;;;;;20.33;100;97805.2;;;;
2021/06/29 22:36:08;;;;;;;10;8.2;;;;;;;20.23;100;97803.22;;;;
2021/06/29 22:46:08;;;;;;;11.5;8.9;;;;;;;20.07;100;97790.68;;;;
2021/06/29 22:56:08;;;;;;;9.1;7.2;;;;;;;20.14;100;97778.17;;;;
2021/06/29 23:06:08;;;;;;;12.7;9.8;;;;;;;19.92;100;97783.61;;;;
2021/06/29 23:16:08;;;;;;;10.7;8.7;;;;;;;19.71;100;97769.14;;;;
2021/06/29 23:26:07;;;;;;;12.5;9.7;;;;;;;19.57;100;97742.55;;;;
2021/06/29 23:36:07;;;;;;;10.7;8.9;;;;;;;19.46;100;97723.39;;;;
2021/06/29 23:46:07;;;;;;;12.4;10.4;;;;;;;19.43;100;97715.18;;;;
2021/06/29 23:56:07;;;;;;;13.9;10.2;;;;;;;19.47;100;97713.24;;;;
